Latest Weather Observations for Amberley

IDQ60801

Issued at 12:05 pm EST Tuesday 21 October 2014 (issued every 30 minutes, with the page automatically refreshed every 10 minutes)

About weather observations | Map of weather stations | Latest weather observations for QLD | Other Formats
Station Details ID: 040004 Name: AMBERLEY AMO Lat: -27.63 Lon: 152.71 Height: 24.2 m
Data from the previous 72 hours. | See also: Recent months at Amberley
Date/Time
EST
Temp
°C
App
Temp
°C
Dew
Point
Rel
Hum
%
Delta-T
°C
Wind Press
QNH
hPa
Press
MSL
hPa
Rain
since 9 am
mm
Dir
 
Spd
km/h
Gust
km/h
Spd
kts
Gust
kts
21/12:00pm 24.5 21.4 11.7 44 7.2 SE 19 28 10 15 1025.8 1025.7 0.0
21/11:30am 24.3 21.3 12.1 46 6.9 ESE 19 26 10 14 1026.2 - 0.0
21/11:00am 24.0 20.2 12.4 48 6.6 SSE 24 32 13 17 1026.5 - 0.0
21/10:30am 24.0 21.0 12.4 48 6.6 ESE 20 30 11 16 1026.6 - 0.0
21/10:00am 23.8 21.4 12.6 49 6.4 SSE 17 26 9 14 1026.7 - 0.0
21/09:30am 23.1 20.2 12.3 50 6.1 ESE 19 28 10 15 1027.0 - 0.0
21/09:00am 23.8 21.1 12.8 50 6.3 SSE 19 26 10 14 1027.0 1026.9 0.0
21/08:30am 22.0 20.3 13.5 58 4.9 SSE 15 26 8 14 1027.3 - 0.0
21/08:00am 21.3 19.7 13.8 62 4.3 S 15 19 8 10 1027.2 - 0.0
21/07:30am 20.5 19.7 14.1 66 3.7 SSE 11 15 6 8 1026.9 - 0.0
21/07:00am 19.1 20.4 14.2 73 2.8 CALM 0 0 0 0 1026.7 - 0.0
21/06:30am 18.4 19.8 14.4 77 2.3 CALM 0 0 0 0 1026.3 - 0.0
21/06:00am 17.7 18.9 13.8 78 2.2 CALM 0 0 0 0 1026.1 1026.0 0.0
21/05:30am 16.7 17.8 13.5 81 1.8 CALM 0 0 0 0 1025.8 - 0.0
21/05:00am 16.3 17.4 13.4 83 1.6 CALM 0 0 0 0 1025.5 - 0.0
21/04:30am 15.8 16.8 13.3 85 1.4 CALM 0 0 0 0 1025.2 - 0.0
21/04:00am 15.5 15.1 13.0 85 1.4 SSW 7 9 4 5 1025.1 - 0.0
21/03:30am 15.6 16.6 13.1 85 1.4 CALM 0 0 0 0 1025.1 - 0.0
21/03:00am 15.6 16.1 12.7 83 1.6 SSW 2 9 1 5 1025.3 1025.2 0.0
21/02:30am 15.3 14.7 12.4 83 1.6 S 7 11 4 6 1025.4 - 0.0
21/02:00am 15.1 14.0 11.9 81 1.7 S 9 11 5 6 1025.4 - 0.0
21/01:30am 14.9 14.2 12.1 83 1.5 S 7 7 4 4 1025.6 - 0.0
21/01:00am 14.9 15.2 12.1 83 1.5 ENE 2 7 1 4 1025.7 - 0.0
21/12:30am 14.8 13.7 11.8 82 1.6 ENE 9 11 5 6 1026.1 - 0.0
21/12:00am 15.3 16.1 12.4 83 1.6 ENE 0 0 0 0 1026.4 1026.3 0.0
 
Date/Time
EST
Temp
°C
App
Temp
°C
Dew
Point
Rel
Hum
%
Delta-T
°C
Wind Press
QNH
hPa
Press
MSL
hPa
Rain
since 9 am
mm
Dir
 
Spd
km/h
Gust
km/h
Spd
kts
Gust
kts
20/11:30pm 16.4 15.4 12.4 77 2.2 E 9 11 5 6 1026.5 - 0.0
20/11:00pm 16.7 15.5 12.9 78 2.1 E 11 11 6 6 1026.7 - 0.0
20/10:30pm 17.4 16.1 12.5 73 2.7 ENE 11 13 6 7 1026.8 - 0.0
20/10:00pm 17.7 16.4 12.6 72 2.8 E 11 13 6 7 1026.7 - 0.0
20/09:30pm 17.7 16.0 12.4 71 2.9 E 13 15 7 8 1026.8 - 0.0
20/09:00pm 18.6 16.9 12.3 67 3.5 ESE 13 17 7 9 1026.7 1026.6 0.0
20/08:00pm 20.5 16.8 11.6 56 4.9 E 22 30 12 16 1025.8 - 0.0
20/07:30pm 21.0 17.8 12.0 56 5.0 E 20 30 11 16 1025.2 - 0.0
20/07:00pm 21.7 17.3 11.8 53 5.5 ENE 26 33 14 18 1024.1 - 0.0
20/06:30pm 22.0 18.8 11.8 52 5.7 ENE 20 32 11 17 1023.5 - 0.0
20/06:00pm 22.8 18.6 11.1 47 6.5 ENE 24 32 13 17 1022.8 1022.8 0.0
20/05:30pm 23.9 19.4 11.4 45 7.0 ENE 26 33 14 18 1022.2 - 0.0
20/05:00pm 24.9 19.4 10.7 40 7.9 ENE 30 37 16 20 1021.6 - 0.0
20/04:30pm 25.6 20.8 10.3 38 8.5 ENE 26 37 14 20 1021.1 - 0.0
20/04:00pm 26.6 20.9 9.8 34 9.3 ENE 30 39 16 21 1020.8 - 0.0
20/03:30pm 27.6 22.2 9.5 32 10.0 ENE 28 35 15 19 1020.4 - 0.0
20/03:00pm 28.4 23.3 9.2 30 10.6 ENE 26 33 14 18 1020.2 1020.1 0.0
20/02:30pm 28.5 25.5 9.1 29 10.7 ENE 15 28 8 15 1020.3 - 0.0
20/02:00pm 29.1 24.6 8.5 27 11.3 ENE 22 32 12 17 1020.5 - 0.0
20/01:30pm 28.0 26.4 8.8 30 10.5 NNW 7 13 4 7 1021.0 - 0.0
20/01:00pm 27.8 25.9 9.0 30 10.3 SSW 9 15 5 8 1021.6 - 0.0
20/12:30pm 27.8 25.2 9.3 31 10.2 ENE 13 19 7 10 1022.1 - 0.0
20/12:00pm 26.7 24.6 9.7 34 9.4 ESE 11 19 6 10 1022.7 1022.7 0.0
20/11:30am 25.9 24.0 9.2 34 9.1 S 9 17 5 9 1023.2 - 0.0
20/11:00am 25.1 23.0 9.8 38 8.4 SE 11 19 6 10 1023.9 - 0.0
20/10:30am 24.6 23.1 10.7 41 7.7 E 9 15 5 8 1024.5 - 0.0
20/10:00am 23.2 21.7 10.7 45 6.9 WSW 9 13 5 7 1025.0 - 0.0
20/09:30am 22.8 21.4 11.0 47 6.6 SW 9 13 5 7 1025.4 - 0.0
20/09:00am 22.3 21.0 11.1 49 6.2 NE 9 13 5 7 1025.6 1025.5 0.0
20/08:30am 21.5 20.7 11.6 53 5.5 E 7 13 4 7 1025.8 - 0.0
20/08:00am 19.5 19.1 11.2 58 4.5 SW 4 7 2 4 1025.8 - 0.0
20/07:30am 17.7 16.9 11.0 65 3.6 SW 6 9 3 5 1025.8 - 0.0
20/07:00am 16.4 16.8 11.2 71 2.8 CALM 0 0 0 0 1025.8 - 0.0
20/06:30am 13.7 14.0 10.8 83 1.5 CALM 0 0 0 0 1025.6 - 0.0
20/06:00am 11.4 11.5 10.2 92 0.6 CALM 0 0 0 0 1025.2 1025.1 0.0
20/05:30am 9.8 9.6 9.0 95 0.4 CALM 0 0 0 0 1025.1 - 0.0
20/05:00am 9.7 9.5 8.9 95 0.4 CALM 0 0 0 0 1025.0 - 0.0
20/04:30am 10.5 10.4 9.5 93 0.5 CALM 0 0 0 0 1024.8 - 0.0
20/04:00am 11.0 11.0 9.8 92 0.6 CALM 0 0 0 0 1024.6 - 0.0
20/03:30am 11.1 11.1 9.7 91 0.7 CALM 0 0 0 0 1024.7 - 0.0
20/03:00am 10.4 10.2 9.2 92 0.6 CALM 0 0 0 0 1024.7 1024.6 0.0
20/02:30am 11.5 11.5 9.9 90 0.8 CALM 0 0 0 0 1024.7 - 0.0
20/02:00am 11.4 11.5 10.0 91 0.7 CALM 0 0 0 0 1025.0 - 0.0
20/01:30am 11.3 11.3 9.7 90 0.8 CALM 0 0 0 0 1025.2 - 0.0
20/01:00am 12.3 12.5 10.4 88 1.0 CALM 0 0 0 0 1025.5 - 0.0
20/12:30am 13.2 13.4 10.5 84 1.4 CALM 0 0 0 0 1025.9 - 0.0
20/12:00am 13.2 13.4 10.5 84 1.4 CALM 0 0 0 0 1026.1 1026.0 0.0
 
Date/Time
EST
Temp
°C
App
Temp
°C
Dew
Point
Rel
Hum
%
Delta-T
°C
Wind Press
QNH
hPa
Press
MSL
hPa
Rain
since 9 am
mm
Dir
 
Spd
km/h
Gust
km/h
Spd
kts
Gust
kts
19/11:30pm 13.7 13.9 10.6 81 1.6 CALM 0 0 0 0 1026.5 - 0.0
19/11:00pm 14.1 13.4 10.2 77 2.0 SW 4 9 2 5 1026.6 - 0.0
19/10:30pm 14.3 13.0 10.0 75 2.2 SSW 7 9 4 5 1026.7 - 0.0
19/10:00pm 16.6 16.8 10.6 67 3.2 CALM 0 0 0 0 1026.6 - 0.0
19/09:30pm 17.4 16.2 10.4 63 3.7 E 7 9 4 5 1026.4 - 0.0
19/09:00pm 18.3 16.0 10.4 60 4.2 ENE 13 19 7 10 1026.2 1026.1 0.0
19/08:30pm 18.7 15.9 10.0 57 4.6 ENE 15 17 8 9 1026.0 - 0.0
19/08:00pm 19.3 16.1 9.9 54 5.0 ENE 17 22 9 12 1025.6 - 0.0
19/07:30pm 19.7 16.1 9.7 52 5.3 ENE 19 30 10 16 1025.4 - 0.0
19/07:00pm 19.8 15.6 9.8 52 5.3 E 22 30 12 16 1025.0 - 0.0
19/06:30pm 20.4 16.2 9.9 51 5.6 ENE 22 33 12 18 1024.5 - 0.0
19/06:00pm 21.0 16.1 10.0 49 5.9 E 26 35 14 19 1023.9 1023.9 0.0
19/05:30pm 22.1 16.8 9.9 46 6.6 ENE 28 35 15 19 1023.4 - 0.0
19/05:00pm 23.1 18.2 10.1 43 7.1 E 26 35 14 19 1022.9 - 0.0
19/04:30pm 24.5 19.3 10.4 41 7.8 ENE 28 35 15 19 1022.4 - 0.0
19/04:00pm 25.6 20.8 10.3 38 8.5 ENE 26 35 14 19 1022.2 - 0.0
19/03:30pm 26.6 22.3 9.5 34 9.4 E 22 32 12 17 1022.1 - 0.0
19/03:00pm 26.3 21.7 9.6 35 9.2 NE 24 30 13 16 1022.1 1022.1 0.0
19/02:30pm 26.6 23.5 7.1 29 10.3 NE 13 28 7 15 1022.4 - 0.0
19/02:00pm 26.3 22.5 5.9 27 10.6 ESE 15 33 8 18 1022.9 - 0.0
19/01:30pm 26.9 23.5 6.1 26 10.8 SSE 13 30 7 16 1023.4 - 0.0
19/01:00pm 27.0 24.0 6.2 26 10.9 SSE 11 19 6 10 1024.0 - 0.0
19/12:30pm 26.1 22.1 6.5 28 10.2 ESE 17 32 9 17 1024.5 - 0.0
19/12:00pm 25.7 24.0 8.3 33 9.3 S 7 19 4 10 1025.0 1024.9 0.0
19/11:30am 24.9 20.7 8.1 34 9.0 S 20 33 11 18 1025.6 - 0.0
19/11:00am 24.6 22.0 9.2 37 8.4 SSE 13 17 7 9 1026.2 - 0.0
19/10:30am 24.4 21.3 8.9 37 8.4 E 15 24 8 13 1026.7 - 0.0
19/10:00am 23.6 18.5 7.5 35 8.4 E 24 30 13 16 1027.0 - 0.0
19/09:30am 23.1 20.7 8.5 39 7.8 E 11 17 6 9 1027.5 - 0.0
19/09:00am 21.6 19.8 9.6 46 6.4 ENE 9 17 5 9 1027.9 1027.8 0.0
19/08:30am 21.6 20.6 11.0 51 5.8 SW 7 17 4 9 1028.0 - 0.0
19/08:00am 19.9 19.0 11.5 58 4.6 S 7 13 4 7 1028.1 - 0.0
19/07:30am 18.3 17.2 11.9 66 3.5 S 9 13 5 7 1028.0 - 0.0
19/07:00am 16.2 15.6 12.2 77 2.2 SW 7 11 4 6 1027.9 - 0.0
19/06:30am 14.2 14.4 12.0 87 1.2 W 2 9 1 5 1027.5 - 0.0
19/06:00am 11.6 11.9 10.8 95 0.4 CALM 0 4 0 2 1027.3 1027.2 0.0
19/05:30am 10.0 9.9 9.4 96 0.3 CALM 0 0 0 0 1027.0 - 0.0
19/05:00am 10.6 9.5 10.0 96 0.3 NNW 6 7 3 4 1026.6 - 0.0
19/04:30am 10.0 9.8 9.2 95 0.4 CALM 0 0 0 0 1026.4 - 0.0
19/04:00am 11.1 11.3 10.7 97 0.2 CALM 0 0 0 0 1026.1 - 0.0
19/03:30am 11.5 11.6 10.3 92 0.6 CALM 0 0 0 0 1025.9 - 0.0
19/03:00am 12.0 10.9 10.6 91 0.7 SSW 7 7 4 4 1025.9 1025.8 0.0
19/02:30am 12.6 11.6 11.1 91 0.8 SSW 7 7 4 4 1026.0 - 0.0
19/02:00am 12.9 12.5 11.2 89 0.9 SSW 4 9 2 5 1025.9 - 0.0
19/01:30am 13.9 12.6 11.2 84 1.4 SSW 9 11 5 6 1026.0 - 0.0
19/01:00am 12.9 13.4 11.6 92 0.7 CALM 0 0 0 0 1026.5 - 0.0
19/12:30am 12.4 12.7 10.9 90 0.8 CALM 0 0 0 0 1026.7 - 0.0
19/12:00am 13.0 12.5 10.9 87 1.1 SSW 4 7 2 4 1027.0 1026.9 0.0
 
Date/Time
EST
Temp
°C
App
Temp
°C
Dew
Point
Rel
Hum
%
Delta-T
°C
Wind Press
QNH
hPa
Press
MSL
hPa
Rain
since 9 am
mm
Dir
 
Spd
km/h
Gust
km/h
Spd
kts
Gust
kts
18/11:30pm 13.1 13.4 11.0 87 1.1 CALM 0 0 0 0 1027.2 - 0.0
18/11:00pm 14.3 14.8 11.7 84 1.4 CALM 0 0 0 0 1027.3 - 0.0
18/10:30pm 14.2 14.6 11.4 83 1.5 CALM 0 0 0 0 1027.3 - 0.0
18/10:00pm 16.3 15.1 11.7 74 2.5 S 9 9 5 5 1027.5 - 0.0
18/09:30pm 16.0 15.1 11.3 73 2.5 SSE 7 9 4 5 1027.3 - 0.0
18/09:00pm 17.1 16.0 12.0 72 2.8 E 9 9 5 5 1027.2 1027.1 0.0
18/08:30pm 18.1 16.6 11.9 67 3.4 E 11 15 6 8 1027.0 - 0.0
18/08:00pm 18.8 16.5 11.7 63 3.9 E 15 22 8 12 1026.8 - 0.0
18/07:30pm 19.3 16.2 11.6 61 4.2 ENE 19 26 10 14 1026.4 - 0.0
18/07:00pm 19.4 14.5 11.3 59 4.4 ENE 28 33 15 18 1025.9 - 0.0
18/06:30pm 20.1 15.0 10.5 54 5.2 ENE 28 37 15 20 1025.4 - 0.0
18/06:00pm 20.5 16.9 10.5 52 5.4 ENE 20 32 11 17 1024.8 1024.7 0.0
18/05:30pm 21.1 16.8 10.9 52 5.6 ENE 24 30 13 16 1024.1 - 0.0
18/05:00pm 21.7 16.8 11.4 52 5.7 ENE 28 35 15 19 1023.4 - 0.0
18/04:30pm 23.2 17.4 10.9 46 6.8 ENE 32 44 17 24 1022.9 - 0.0
18/04:00pm 23.3 17.4 10.3 43 7.1 ENE 32 41 17 22 1022.6 - 0.0
18/03:30pm 24.5 20.2 10.6 41 7.7 NE 24 32 13 17 1022.4 - 0.0
18/03:00pm 24.8 20.2 9.8 38 8.2 E 24 33 13 18 1022.4 1022.4 0.0
18/02:30pm 26.0 22.0 9.1 34 9.2 NE 20 32 11 17 1022.5 - 0.0
18/02:00pm 24.6 20.3 9.3 38 8.3 ENE 22 32 12 17 1022.8 - 0.0
18/01:30pm 25.4 21.1 7.9 32 9.3 ENE 20 30 11 16 1023.1 - 0.0
18/01:00pm 25.1 20.7 7.4 32 9.3 ENE 20 26 11 14 1023.3 - 0.0
18/12:30pm 26.4 23.8 7.8 30 10.0 SE 11 19 6 10 1023.6 - 0.0

Other Formats:

Comma delimited format used in spreadsheet applications
http://www.bom.gov.au/fwo/IDQ60801/IDQ60801.94568.axf

JavaScript Object Notation format (JSON) in row-major order
http://www.bom.gov.au/fwo/IDQ60801/IDQ60801.94568.json